createdAt,value
2022-09-10T00:01:53.594Z,96742.97
2022-09-10T00:04:20.612Z,96744.88
2022-09-10T00:06:47.849Z,96738.25
2022-09-10T00:09:15.018Z,96742.25
2022-09-10T00:11:42.608Z,96749.03
2022-09-10T00:14:13.158Z,96746.53
2022-09-10T00:16:42.209Z,96749.41
2022-09-10T00:19:10.248Z,96757.69
2022-09-10T00:21:37.775Z,96756.75
2022-09-10T00:24:05.604Z,96766.25
2022-09-10T00:26:35.395Z,96751.50
2022-09-10T00:29:02.596Z,96759.50
2022-09-10T00:31:32.709Z,96739.47
2022-09-10T00:34:03.717Z,96732.41
2022-09-10T00:36:33.110Z,96721.81
2022-09-10T00:39:01.866Z,96721.94
2022-09-10T00:41:30.403Z,96729.81
2022-09-10T00:43:59.189Z,96735.75
2022-09-10T00:46:34.080Z,96725.97
2022-09-10T00:49:11.203Z,96730.38
2022-09-10T00:51:38.991Z,96734.91
2022-09-10T00:54:06.486Z,96734.50
2022-09-10T00:56:34.397Z,96738.91
2022-09-10T00:59:03.859Z,96738.59
2022-09-10T01:01:32.806Z,96729.22
2022-09-10T01:04:01.037Z,96737.22
2022-09-10T01:06:29.802Z,96736.50
2022-09-10T01:08:57.423Z,96740.25
2022-09-10T01:11:42.900Z,96729.59
2022-09-10T01:14:35.405Z,96735.81
2022-09-10T01:17:11.816Z,96725.47
2022-09-10T01:20:16.186Z,96704.50
2022-09-10T01:23:06.082Z,96719.91
2022-09-10T01:25:46.154Z,96725.50
2022-09-10T01:28:22.447Z,96731.28
2022-09-10T01:30:54.922Z,96742.88
2022-09-10T01:33:31.698Z,96752.75
2022-09-10T01:36:04.149Z,96763.22
2022-09-10T01:38:34.466Z,96758.13
2022-09-10T01:41:02.550Z,96758.72
2022-09-10T01:43:31.728Z,96749.59
2022-09-10T01:46:14.585Z,96749.22
2022-09-10T01:49:18.250Z,96744.69
2022-09-10T01:52:07.504Z,96739.44
2022-09-10T01:54:46.254Z,96739.34
2022-09-10T01:57:24.676Z,96748.84
2022-09-10T01:59:58.158Z,96755.91
2022-09-10T02:02:30.602Z,96753.16
2022-09-10T02:04:59.189Z,96754.81
2022-09-10T02:07:28.865Z,96760.63
2022-09-10T02:09:56.352Z,96755.25
2022-09-10T02:12:24.186Z,96750.69
2022-09-10T02:14:55.172Z,96749.19
2022-09-10T02:17:26.611Z,96746.28
2022-09-10T02:19:54.753Z,96745.19
2022-09-10T02:22:23.531Z,96731.13
2022-09-10T02:24:51.222Z,96735.28
2022-09-10T02:27:19.520Z,96736.09
2022-09-10T02:29:47.097Z,96719.81
2022-09-10T02:32:16.629Z,96731.13
2022-09-10T02:34:44.021Z,96728.63
2022-09-10T02:37:11.580Z,96726.69
2022-09-10T02:39:38.525Z,96720.88
2022-09-10T02:42:06.219Z,96721.13
2022-09-10T02:44:33.461Z,96722.31
2022-09-10T02:47:00.992Z,96711.56
2022-09-10T02:49:29.755Z,96719.53
2022-09-10T02:51:56.956Z,96718.81
2022-09-10T02:54:24.157Z,96727.94
2022-09-10T02:56:51.480Z,96718.41
2022-09-10T02:59:18.540Z,96730.94
2022-09-10T03:01:46.349Z,96735.34
2022-09-10T03:04:16.095Z,96739.63
2022-09-10T03:06:45.100Z,96739.19
2022-09-10T03:09:12.035Z,96734.22
2022-09-10T03:11:38.986Z,96733.25
2022-09-10T03:14:06.250Z,96743.16
2022-09-10T03:16:33.272Z,96737.34
2022-09-10T03:19:00.645Z,96738.28
2022-09-10T03:21:28.533Z,96727.94
2022-09-10T03:23:57.927Z,96737.47
2022-09-10T03:26:25.577Z,96742.84
2022-09-10T03:28:53.629Z,96749.41
2022-09-10T03:31:21.151Z,96746.22
2022-09-10T03:33:48.407Z,96735.75
2022-09-10T03:36:15.851Z,96729.84
2022-09-10T03:38:43.090Z,96725.81
2022-09-10T03:41:11.637Z,96726.63
2022-09-10T03:43:39.065Z,96736.84
2022-09-10T03:46:07.062Z,96730.66
2022-09-10T03:48:34.315Z,96729.72
2022-09-10T03:51:01.597Z,96723.50
2022-09-10T03:53:28.658Z,96727.91
2022-09-10T03:55:55.859Z,96721.47
2022-09-10T03:58:25.172Z,96724.34
2022-09-10T04:00:52.719Z,96721.53
2022-09-10T04:03:20.163Z,96727.00
2022-09-10T04:05:47.608Z,96728.94
2022-09-10T04:08:15.513Z,96727.13
2022-09-10T04:10:43.566Z,96727.13
2022-09-10T04:13:11.311Z,96729.88
2022-09-10T04:15:41.094Z,96719.66
2022-09-10T04:18:08.512Z,96720.25
2022-09-10T04:20:35.714Z,96733.47
2022-09-10T04:23:03.545Z,96731.94
2022-09-10T04:25:31.057Z,96738.13
2022-09-10T04:27:58.426Z,96736.59
2022-09-10T04:30:25.883Z,96723.19
2022-09-10T04:32:55.840Z,96729.66
2022-09-10T04:35:23.028Z,96738.69
2022-09-10T04:37:50.213Z,96742.84
2022-09-10T04:40:17.435Z,96746.22
2022-09-10T04:42:44.684Z,96750.22
2022-09-10T04:45:12.128Z,96746.41
2022-09-10T04:47:39.345Z,96749.84
2022-09-10T04:50:10.420Z,96749.03
2022-09-10T04:52:38.049Z,96755.94
2022-09-10T04:55:06.086Z,96758.69
2022-09-10T04:57:33.104Z,96763.19
2022-09-10T05:00:00.515Z,96757.50
2022-09-10T05:02:28.033Z,96755.72
2022-09-10T05:04:55.064Z,96762.38
2022-09-10T05:07:24.307Z,96765.56
2022-09-10T05:09:51.197Z,96759.13
2022-09-10T05:12:19.042Z,96755.31
2022-09-10T05:14:46.414Z,96742.78
2022-09-10T05:17:13.684Z,96754.94
2022-09-10T05:19:41.150Z,96763.59
2022-09-10T05:22:08.505Z,96768.72
2022-09-10T05:24:37.724Z,96773.69
2022-09-10T05:27:05.374Z,96778.81
2022-09-10T05:29:32.538Z,96788.91
2022-09-10T05:31:59.849Z,96791.94
2022-09-10T05:34:27.346Z,96785.63
2022-09-10T05:36:54.365Z,96791.44
2022-09-10T05:39:21.846Z,96775.72
2022-09-10T05:41:50.797Z,96776.06
2022-09-10T05:44:18.741Z,96795.34
2022-09-10T05:46:46.027Z,96797.03
2022-09-10T05:49:13.269Z,96795.59
2022-09-10T05:51:40.539Z,96795.03
2022-09-10T05:54:08.845Z,96800.03
2022-09-10T05:56:36.229Z,96805.00
2022-09-10T05:59:06.109Z,96794.28
2022-09-10T06:01:34.269Z,96797.97
2022-09-10T06:04:02.108Z,96792.53
2022-09-10T06:06:29.921Z,96806.47
2022-09-10T06:08:58.732Z,96798.84
2022-09-10T06:11:26.510Z,96800.41
2022-09-10T06:13:53.749Z,96806.22
2022-09-10T06:16:22.596Z,96811.88
2022-09-10T06:18:49.753Z,96819.34
2022-09-10T06:21:19.203Z,96820.34
2022-09-10T06:23:47.057Z,96825.19
2022-09-10T06:26:16.319Z,96808.25
2022-09-10T06:28:43.816Z,96814.03
2022-09-10T06:31:12.017Z,96809.66
2022-09-10T06:33:41.665Z,96808.53
2022-09-10T06:36:10.742Z,96806.53
2022-09-10T06:38:38.115Z,96799.47
2022-09-10T06:41:08.967Z,96804.34
2022-09-10T06:43:37.330Z,96798.97
2022-09-10T06:46:24.839Z,96810.72
2022-09-10T06:48:57.694Z,96806.19
2022-09-10T06:51:25.283Z,96808.78
2022-09-10T06:53:52.473Z,96808.78
2022-09-10T06:56:19.722Z,96802.47
2022-09-10T06:58:46.945Z,96806.50
2022-09-10T07:01:17.278Z,96804.22
2022-09-10T07:03:44.916Z,96795.97
2022-09-10T07:06:16.166Z,96799.81
2022-09-10T07:08:44.359Z,96802.31
2022-09-10T07:11:13.864Z,96800.28
2022-09-10T07:13:42.060Z,96807.88
2022-09-10T07:16:09.524Z,96809.97
2022-09-10T07:18:37.356Z,96810.66
2022-09-10T07:21:08.391Z,96813.19
2022-09-10T07:23:37.460Z,96797.19
2022-09-10T07:26:05.562Z,96801.06
2022-09-10T07:28:32.805Z,96801.06
2022-09-10T07:31:00.325Z,96803.28
2022-09-10T07:33:27.411Z,96808.69
2022-09-10T07:35:54.476Z,96812.13
2022-09-10T07:38:21.607Z,96805.78
2022-09-10T07:40:51.828Z,96808.69
2022-09-10T07:43:19.221Z,96811.19
2022-09-10T07:45:46.444Z,96812.44
2022-09-10T07:48:13.662Z,96809.81
2022-09-10T07:50:41.039Z,96802.50
2022-09-10T07:53:08.320Z,96806.78
2022-09-10T07:55:35.687Z,96790.91
2022-09-10T07:58:04.341Z,96807.66
2022-09-10T08:00:32.026Z,96797.41
2022-09-10T08:02:59.222Z,96794.41
2022-09-10T08:05:26.590Z,96789.41
2022-09-10T08:07:54.042Z,96796.59
2022-09-10T08:10:21.528Z,96789.03
2022-09-10T08:12:48.654Z,96795.34
2022-09-10T08:15:17.511Z,96801.03
2022-09-10T08:17:44.807Z,96807.38
2022-09-10T08:20:11.951Z,96802.53
2022-09-10T08:22:39.112Z,96806.09
2022-09-10T08:25:07.800Z,96813.56
2022-09-10T08:27:35.481Z,96804.44
2022-09-10T08:30:02.963Z,96801.22
2022-09-10T08:32:31.839Z,96814.22
2022-09-10T08:34:58.894Z,96804.94
2022-09-10T08:37:26.243Z,96803.69
2022-09-10T08:39:53.819Z,96818.75
2022-09-10T08:42:27.643Z,96809.75
2022-09-10T08:44:59.674Z,96809.47
2022-09-10T08:47:35.667Z,96801.00
2022-09-10T08:50:08.186Z,96803.91
2022-09-10T08:52:41.785Z,96799.03
2022-09-10T08:55:23.362Z,96788.34
2022-09-10T08:57:55.401Z,96797.91
2022-09-10T09:00:25.762Z,96787.09
2022-09-10T09:03:02.011Z,96802.97
2022-09-10T09:05:38.979Z,96790.22
2022-09-10T09:08:06.920Z,96789.94
2022-09-10T09:10:45.859Z,96793.09
2022-09-10T09:13:28.721Z,96782.94
2022-09-10T09:16:08.831Z,96789.72
2022-09-10T09:18:52.985Z,96782.50
2022-09-10T09:21:31.053Z,96781.75
2022-09-10T09:24:14.256Z,96787.56
2022-09-10T09:26:45.756Z,96788.41
2022-09-10T09:29:16.322Z,96797.63
2022-09-10T09:31:48.025Z,96786.88
2022-09-10T09:34:23.600Z,96788.09
2022-09-10T09:36:54.509Z,96792.91
2022-09-10T09:39:28.180Z,96779.16
2022-09-10T09:42:07.017Z,96781.56
2022-09-10T09:44:39.887Z,96779.75
2022-09-10T09:47:09.987Z,96774.03
2022-09-10T09:49:39.998Z,96781.88
2022-09-10T09:52:19.392Z,96777.75
2022-09-10T09:57:40.997Z,96774.47
2022-09-10T10:00:36.796Z,96773.19
2022-09-10T10:03:13.441Z,96764.91
2022-09-10T10:05:42.868Z,96773.53
2022-09-10T10:08:28.942Z,96771.41
2022-09-10T10:10:56.176Z,96770.13
2022-09-10T10:13:24.679Z,96766.88
2022-09-10T10:15:53.284Z,96762.50
2022-09-10T10:18:31.237Z,96757.88
2022-09-10T10:21:15.357Z,96756.94
2022-09-10T10:23:43.563Z,96762.56
2022-09-10T10:26:25.286Z,96741.84
2022-09-10T10:28:56.985Z,96751.28
2022-09-10T10:31:24.247Z,96749.66
2022-09-10T10:33:59.866Z,96744.91
2022-09-10T10:36:42.990Z,96739.63
2022-09-10T10:39:21.124Z,96741.28
2022-09-10T10:42:02.441Z,96745.22
2022-09-10T10:44:44.969Z,96740.00
2022-09-10T10:47:24.462Z,96737.84
2022-09-10T10:50:02.420Z,96731.94
2022-09-10T10:52:40.190Z,96728.81
2022-09-10T10:55:20.459Z,96719.59
2022-09-10T10:58:08.499Z,96728.00
2022-09-10T11:00:43.370Z,96724.72
2022-09-10T11:03:21.125Z,96726.88
2022-09-10T11:05:53.524Z,96721.25
2022-09-10T11:08:27.995Z,96722.94
2022-09-10T11:11:02.899Z,96717.31
2022-09-10T11:13:37.427Z,96714.66
2022-09-10T11:16:10.437Z,96710.88
2022-09-10T11:18:47.188Z,96710.75
2022-09-10T11:21:20.641Z,96706.97
2022-09-10T11:23:56.698Z,96706.94
2022-09-10T11:26:27.882Z,96711.56
2022-09-10T11:29:04.157Z,96710.72
2022-09-10T11:31:35.847Z,96707.09
2022-09-10T11:34:05.935Z,96707.09
2022-09-10T11:36:41.101Z,96705.91
2022-09-10T11:39:14.546Z,96706.25
2022-09-10T11:41:43.230Z,96702.09
2022-09-10T11:44:29.607Z,96690.53
2022-09-10T11:47:03.861Z,96691.16
2022-09-10T11:49:43.022Z,96689.16
2022-09-10T11:52:10.835Z,96680.09
2022-09-10T11:54:40.780Z,96680.56
2022-09-10T11:57:15.034Z,96675.78
2022-09-10T12:00:01.463Z,96673.63
2022-09-10T12:03:01.286Z,96677.41
2022-09-10T12:05:40.016Z,96669.97
2022-09-10T12:08:15.518Z,96678.84
2022-09-10T12:11:06.331Z,96677.88
2022-09-10T12:13:37.868Z,96670.75
2022-09-10T12:16:19.095Z,96668.78
2022-09-10T12:18:49.784Z,96671.56
2022-09-10T12:21:27.520Z,96669.41
2022-09-10T12:23:56.315Z,96661.00
2022-09-10T12:26:26.766Z,96668.75
2022-09-10T12:29:05.107Z,96652.59
2022-09-10T12:32:09.305Z,96654.53
2022-09-10T12:34:36.499Z,96663.91
2022-09-10T12:37:20.586Z,96647.81
2022-09-10T12:39:48.824Z,96646.59
2022-09-10T12:42:30.872Z,96641.47
2022-09-10T12:44:57.932Z,96643.13
2022-09-10T12:47:47.677Z,96645.59
2022-09-10T12:50:36.863Z,96632.72
2022-09-10T12:53:35.589Z,96640.00
2022-09-10T12:56:16.061Z,96628.28
2022-09-10T12:58:59.991Z,96621.97
2022-09-10T13:01:40.678Z,96621.16
2022-09-10T13:04:22.573Z,96633.25
2022-09-10T13:06:51.609Z,96635.72
2022-09-10T13:09:23.049Z,96640.66
2022-09-10T13:11:54.114Z,96638.34
2022-09-10T13:14:28.799Z,96639.53
2022-09-10T13:16:56.146Z,96629.91
2022-09-10T13:19:49.839Z,96638.03
2022-09-10T13:23:02.595Z,96642.06
2022-09-10T13:25:37.117Z,96646.72
2022-09-10T13:28:43.208Z,96647.63
2022-09-10T13:31:21.850Z,96647.38
2022-09-10T13:34:10.100Z,96650.22
2022-09-10T13:36:46.033Z,96641.34
2022-09-10T13:39:33.960Z,96650.28
2022-09-10T13:42:33.600Z,96644.50
2022-09-10T13:45:17.842Z,96646.00
2022-09-10T13:47:51.815Z,96649.81
2022-09-10T13:50:23.365Z,96647.81
2022-09-10T13:52:54.709Z,96649.97
2022-09-10T13:55:26.727Z,96634.78
2022-09-10T13:57:57.971Z,96637.75
2022-09-10T14:00:29.937Z,96638.91
2022-09-10T14:03:00.028Z,96645.38
2022-09-10T14:05:34.867Z,96649.16
2022-09-10T14:08:06.899Z,96646.19
2022-09-10T14:10:49.124Z,96657.72
2022-09-10T14:13:20.434Z,96651.97
2022-09-10T14:15:49.982Z,96649.97
2022-09-10T14:18:19.709Z,96654.94
2022-09-10T14:20:47.281Z,96651.13
2022-09-10T14:23:17.012Z,96654.59
2022-09-10T14:25:46.132Z,96650.94
2022-09-10T14:28:27.300Z,96663.78
2022-09-10T14:31:28.073Z,96665.25
2022-09-10T14:33:58.125Z,96665.72
2022-09-10T14:36:34.452Z,96682.00
2022-09-10T14:39:06.117Z,96682.97
2022-09-10T14:41:36.127Z,96691.34
2022-09-10T14:44:28.001Z,96695.31
2022-09-10T14:46:56.799Z,96691.16
2022-09-10T14:49:28.626Z,96686.38
2022-09-10T14:51:56.952Z,96688.19
2022-09-10T14:54:24.182Z,96691.66
2022-09-10T14:56:52.096Z,96693.09
2022-09-10T14:59:28.138Z,96690.59
2022-09-10T15:01:55.415Z,96697.41
2022-09-10T15:04:26.392Z,96703.63
2022-09-10T15:06:54.878Z,96700.09
2022-09-10T15:09:22.626Z,96697.97
2022-09-10T15:11:54.728Z,96689.00
2022-09-10T15:14:22.395Z,96683.81
2022-09-10T15:16:50.706Z,96697.75
2022-09-10T15:19:18.302Z,96691.63
2022-09-10T15:21:47.661Z,96689.53
2022-09-10T15:24:17.760Z,96690.50
2022-09-10T15:26:45.018Z,96685.41
2022-09-10T15:29:12.838Z,96685.19
2022-09-10T15:31:41.081Z,96694.06
2022-09-10T15:34:10.046Z,96699.13
2022-09-10T15:36:39.203Z,96693.47
2022-09-10T15:39:12.713Z,96700.41
2022-09-10T15:41:42.555Z,96705.59
2022-09-10T15:44:10.054Z,96696.19
2022-09-10T15:46:41.771Z,96701.31
2022-09-10T15:49:09.296Z,96706.13
2022-09-10T15:51:36.201Z,96708.91
2022-09-10T15:54:05.284Z,96701.97
2022-09-10T15:56:34.837Z,96699.50
2022-09-10T15:59:02.262Z,96705.31
2022-09-10T16:01:29.468Z,96706.13
2022-09-10T16:03:58.871Z,96691.28
2022-09-10T16:06:27.820Z,96698.53
2022-09-10T16:08:57.446Z,96697.00
2022-09-10T16:11:26.372Z,96701.59
2022-09-10T16:14:00.948Z,96706.81
2022-09-10T16:16:31.423Z,96719.72
2022-09-10T16:18:58.722Z,96726.06
2022-09-10T16:21:28.785Z,96726.78
2022-09-10T16:23:57.907Z,96736.78
2022-09-10T16:26:28.315Z,96742.63
2022-09-10T16:28:59.529Z,96732.25
2022-09-10T16:31:29.837Z,96742.75
2022-09-10T16:33:59.453Z,96748.88
2022-09-10T16:36:27.356Z,96737.22
2022-09-10T16:38:56.797Z,96728.88
2022-09-10T16:41:26.231Z,96732.06
2022-09-10T16:43:54.302Z,96738.97
2022-09-10T16:46:22.947Z,96751.97
2022-09-10T16:48:52.970Z,96751.81
2022-09-10T16:51:22.399Z,96760.72
2022-09-10T16:53:53.858Z,96751.44
2022-09-10T16:56:21.282Z,96767.38
2022-09-10T16:58:49.103Z,96769.34
2022-09-10T17:01:16.837Z,96775.31
2022-09-10T17:03:46.926Z,96756.50
2022-09-10T17:06:15.309Z,96769.94
2022-09-10T17:08:43.210Z,96765.41
2022-09-10T17:11:10.867Z,96780.50
2022-09-10T17:13:38.451Z,96767.09
2022-09-10T17:16:24.191Z,96764.09
2022-09-10T17:19:02.247Z,96774.38
2022-09-10T17:21:31.064Z,96773.28
2022-09-10T17:23:59.844Z,96768.22
2022-09-10T17:26:27.484Z,96763.91
2022-09-10T17:28:56.760Z,96760.91
2022-09-10T17:31:25.020Z,96764.63
2022-09-10T17:33:52.605Z,96772.50
2022-09-10T17:36:21.579Z,96768.38
2022-09-10T17:38:49.507Z,96775.56
2022-09-10T17:41:16.970Z,96780.28
2022-09-10T17:43:44.694Z,96789.41
2022-09-10T17:46:14.357Z,96793.00
2022-09-10T17:48:42.170Z,96796.88
2022-09-10T17:51:12.867Z,96793.00
2022-09-10T17:53:41.803Z,96800.88
2022-09-10T17:56:10.761Z,96803.25
2022-09-10T17:58:38.664Z,96814.56
2022-09-10T18:01:08.956Z,96809.47
2022-09-10T18:03:36.583Z,96811.97
2022-09-10T18:06:05.015Z,96807.66
2022-09-10T18:08:33.155Z,96808.75
2022-09-10T18:11:07.777Z,96818.38
2022-09-10T18:13:36.905Z,96825.03
2022-09-10T18:16:09.159Z,96832.19
2022-09-10T18:18:37.037Z,96824.72
2022-09-10T18:21:12.526Z,96827.31
2022-09-10T18:23:39.658Z,96832.44
2022-09-10T18:26:18.240Z,96831.75
2022-09-10T18:28:53.518Z,96819.59
2022-09-10T18:31:21.984Z,96825.69
2022-09-10T18:33:49.696Z,96831.91
2022-09-10T18:36:19.461Z,96836.31
2022-09-10T18:38:47.086Z,96841.56
2022-09-10T18:41:21.915Z,96838.09
2022-09-10T18:43:50.983Z,96842.66
2022-09-10T18:46:18.946Z,96840.28
2022-09-10T18:48:47.384Z,96832.69
2022-09-10T18:51:16.485Z,96839.88
2022-09-10T18:53:45.446Z,96830.34
2022-09-10T18:56:15.267Z,96830.47
2022-09-10T18:58:48.924Z,96843.59
2022-09-10T19:01:17.635Z,96841.38
2022-09-10T19:03:47.777Z,96841.63
2022-09-10T19:06:16.497Z,96843.13
2022-09-10T19:08:48.741Z,96848.50
2022-09-10T19:11:16.978Z,96838.28
2022-09-10T19:13:49.728Z,96842.00
2022-09-10T19:16:18.582Z,96837.81
2022-09-10T19:18:51.026Z,96827.56
2022-09-10T19:21:19.361Z,96829.06
2022-09-10T19:23:48.804Z,96829.56
2022-09-10T19:26:18.015Z,96832.84
2022-09-10T19:28:47.859Z,96839.41
2022-09-10T19:31:17.198Z,96847.44
2022-09-10T19:33:44.192Z,96846.06
2022-09-10T19:36:13.626Z,96854.19
2022-09-10T19:38:41.770Z,96854.69
2022-09-10T19:41:11.877Z,96857.69
2022-09-10T19:43:40.658Z,96848.53
2022-09-10T19:46:10.864Z,96851.28
2022-09-10T19:48:38.527Z,96850.03
2022-09-10T19:51:07.155Z,96852.03
2022-09-10T19:53:34.991Z,96865.63
2022-09-10T19:56:06.633Z,96874.34
2022-09-10T19:58:34.967Z,96871.13
2022-09-10T20:01:09.674Z,96869.00
2022-09-10T20:03:38.216Z,96867.00
2022-09-10T20:06:07.735Z,96872.84
2022-09-10T20:08:35.558Z,96875.16
2022-09-10T20:11:04.508Z,96874.81
2022-09-10T20:13:32.402Z,96862.09
2022-09-10T20:16:00.663Z,96873.63
2022-09-10T20:18:31.677Z,96860.56
2022-09-10T20:21:08.772Z,96865.44
2022-09-10T20:23:36.845Z,96857.97
2022-09-10T20:26:09.023Z,96864.63
2022-09-10T20:28:36.303Z,96860.38
2022-09-10T20:31:04.844Z,96853.47
2022-09-10T20:33:34.248Z,96862.25
2022-09-10T20:36:01.440Z,96855.47
2022-09-10T20:38:28.795Z,96862.59
2022-09-10T20:40:56.744Z,96854.72
2022-09-10T20:43:24.316Z,96846.06
2022-09-10T20:45:51.309Z,96843.47
2022-09-10T20:48:18.841Z,96837.66
2022-09-10T20:50:53.870Z,96846.78
2022-09-10T20:53:21.171Z,96833.13
2022-09-10T20:55:48.945Z,96841.09
2022-09-10T20:58:17.128Z,96834.31
2022-09-10T21:00:45.641Z,96840.03
2022-09-10T21:03:13.756Z,96835.41
2022-09-10T21:05:41.275Z,96833.84
2022-09-10T21:08:10.429Z,96841.81
2022-09-10T21:10:37.776Z,96835.75
2022-09-10T21:13:05.356Z,96833.97
2022-09-10T21:15:32.447Z,96834.09
2022-09-10T21:17:59.943Z,96836.94
2022-09-10T21:20:27.072Z,96834.91
2022-09-10T21:22:54.045Z,96841.13
2022-09-10T21:25:23.070Z,96843.84
2022-09-10T21:27:49.956Z,96843.38
2022-09-10T21:30:17.159Z,96838.63
2022-09-10T21:32:44.663Z,96845.72
2022-09-10T21:35:12.304Z,96846.91
2022-09-10T21:37:39.251Z,96847.38
2022-09-10T21:40:07.595Z,96853.78
2022-09-10T21:42:36.312Z,96854.84
2022-09-10T21:45:03.508Z,96845.34
2022-09-10T21:47:30.732Z,96841.75
2022-09-10T21:49:58.688Z,96857.31
2022-09-10T21:52:26.003Z,96857.78
2022-09-10T21:54:53.195Z,96858.81
2022-09-10T21:57:20.309Z,96862.88
2022-09-10T21:59:49.294Z,96865.16
2022-09-10T22:02:16.941Z,96862.28
2022-09-10T22:04:44.675Z,96868.78
2022-09-10T22:07:12.154Z,96876.84
2022-09-10T22:09:39.049Z,96871.50
2022-09-10T22:12:06.541Z,96882.28
2022-09-10T22:14:34.395Z,96871.47
2022-09-10T22:17:03.337Z,96875.34
2022-09-10T22:19:30.409Z,96872.94
2022-09-10T22:21:57.603Z,96880.03
2022-09-10T22:24:25.118Z,96880.16
2022-09-10T22:26:52.310Z,96877.31
2022-09-10T22:29:20.988Z,96866.81
2022-09-10T22:31:48.389Z,96874.28
2022-09-10T22:34:17.933Z,96867.41
2022-09-10T22:36:46.694Z,96869.91
2022-09-10T22:39:15.808Z,96866.94
2022-09-10T22:41:43.962Z,96862.44
2022-09-10T22:44:12.118Z,96866.59
2022-09-10T22:46:39.991Z,96862.91
2022-09-10T22:49:07.427Z,96861.50
2022-09-10T22:51:38.382Z,96861.94
2022-09-10T22:54:06.152Z,96856.34
2022-09-10T22:56:34.796Z,96870.34
2022-09-10T22:59:02.586Z,96860.31
2022-09-10T23:01:34.266Z,96862.09
2022-09-10T23:04:03.398Z,96859.28
2022-09-10T23:06:32.510Z,96855.69
2022-09-10T23:09:06.713Z,96853.31
2022-09-10T23:11:35.834Z,96847.28
2022-09-10T23:14:05.912Z,96844.66
2022-09-10T23:16:34.793Z,96850.69
2022-09-10T23:19:04.927Z,96839.06
2022-09-10T23:21:33.920Z,96840.50
2022-09-10T23:24:06.088Z,96847.13
2022-09-10T23:26:33.208Z,96839.63
2022-09-10T23:29:03.205Z,96845.66
2022-09-10T23:31:32.252Z,96837.13
2022-09-10T23:34:00.975Z,96833.78
2022-09-10T23:36:30.842Z,96834.34
2022-09-10T23:38:58.436Z,96835.41
2022-09-10T23:41:27.750Z,96838.34
2022-09-10T23:43:55.041Z,96827.91
2022-09-10T23:46:22.583Z,96827.06
2022-09-10T23:48:49.620Z,96827.19
2022-09-10T23:51:19.377Z,96842.94
2022-09-10T23:53:47.694Z,96847.75
2022-09-10T23:56:16.104Z,96847.16
2022-09-10T23:58:45.581Z,96847.53
